Time;durP1;ratioP1;P1;durP2;ratioP2;P2;SDS_P1;SDS_P2;PMS_P1;PMS_P2;Temp;Humidity;BMP_temperature;BMP_pressure;BME280_temperature;BME280_humidity;BME280_pressure;Samples;Min_cycle;Max_cycle;Signal;HPM_P1;HPM_P2
2022/03/21 00:00:59;;;;;;;;;;;;;;;17.08;57.17;100595.28;2093091;28;19928;-45
2022/03/21 00:02:01;;;;;;;;;;;;;;;17.09;57.18;100594.28;2095427;28;20423;-45
2022/03/21 00:03:02;;;;;;;;;;;;;;;17.09;57.01;100594.28;2092363;28;19970;-45
2022/03/21 00:04:03;;;;;;;;;;;;;;;17.10;57.03;100600.63;2089572;28;19912;-45
2022/03/21 00:05:04;;;;;;;;;;;;;;;17.10;56.81;100590.56;2096504;28;20242;-48
2022/03/21 00:06:05;;;;;;;;;;;;;;;17.09;57.19;100602.44;2089947;28;19991;-45
2022/03/21 00:07:05;;;;;;;;;;;;;;;17.10;56.96;100606.91;2093237;28;19916;-45
2022/03/21 00:08:05;;;;;;;;;;;;;;;17.10;57.04;100604.19;2089887;28;20007;-47
2022/03/21 00:09:06;;;;;;;;;;;;;;;17.11;57.07;100603.19;2090987;28;19935;-47
2022/03/21 00:10:06;;;;;;;;;;;;;;;17.10;57.17;100598.75;2087277;28;20359;-46
2022/03/21 00:11:07;;;;;;;;;;;;;;;17.11;57.13;100603.19;2091605;28;19951;-47
2022/03/21 00:12:07;;;;;;;;;;;;;;;17.11;57.21;100592.28;2091108;28;19970;-49
2022/03/21 00:13:08;;;;;;;;;;;;;;;17.11;56.91;100600.47;2095032;28;19926;-45
2022/03/21 00:14:10;;;;;;;;;;;;;;;17.11;57.01;100597.75;2091103;28;19931;-46
2022/03/21 00:15:10;;;;;;;;;;;;;;;17.12;57.02;100596.78;2090022;28;19974;-45
2022/03/21 00:16:12;;;;;;;;;;;;;;;17.13;57.09;100606.66;2089333;28;19920;-46
2022/03/21 00:17:13;;;;;;;;;;;;;;;17.12;56.95;100596.78;2091763;28;20020;-45
2022/03/21 00:18:14;;;;;;;;;;;;;;;17.12;56.90;100596.78;2088254;28;20304;-45
2022/03/21 00:19:14;;;;;;;;;;;;;;;17.13;56.99;100606.66;2094135;28;20212;-46
2022/03/21 00:20:19;;;;;;;;;;;;;;;17.13;57.00;100597.63;2091129;28;19927;-45
2022/03/21 00:21:20;;;;;;;;;;;;;;;17.13;57.00;100595.78;2089420;28;19919;-45
2022/03/21 00:22:20;;;;;;;;;;;;;;;17.12;56.98;100584.97;2092121;28;19964;-47
2022/03/21 00:23:21;;;;;;;;;;;;;;;17.13;57.14;100589.47;2085176;28;19951;-46
2022/03/21 00:24:21;;;;;;;;;;;;;;;17.12;57.08;100594.03;2095155;28;19972;-45
2022/03/21 00:25:22;;;;;;;;;;;;;;;17.12;56.98;100591.31;2092753;28;19920;-45
2022/03/21 00:26:22;;;;;;;;;;;;;;;17.12;56.99;100594.03;2090781;28;19925;-47
2022/03/21 00:27:23;;;;;;;;;;;;;;;17.13;57.08;100584.88;2090006;28;19920;-45
2022/03/21 00:28:23;;;;;;;;;;;;;;;17.12;57.01;100591.31;2088529;28;20381;-46
2022/03/21 00:29:24;;;;;;;;;;;;;;;17.12;57.01;100583.16;2093696;28;19987;-46
2022/03/21 00:30:24;;;;;;;;;;;;;;;17.13;56.94;100587.59;2093830;28;20732;-46
2022/03/21 00:31:25;;;;;;;;;;;;;;;17.13;56.96;100584.88;2094436;28;20330;-45
2022/03/21 00:32:25;;;;;;;;;;;;;;;17.11;57.00;100581.41;2093909;28;19923;-46
2022/03/21 00:33:25;;;;;;;;;;;;;;;17.12;56.79;100585.88;2091338;28;19927;-46
2022/03/21 00:34:26;;;;;;;;;;;;;;;17.11;56.89;100581.41;2086678;28;20262;-47
2022/03/21 00:35:27;;;;;;;;;;;;;;;17.10;56.96;100593.31;2093395;28;20724;-48
2022/03/21 00:36:28;;;;;;;;;;;;;;;17.10;57.11;100590.56;2092840;28;19916;-47
2022/03/21 00:37:28;;;;;;;;;;;;;;;17.10;56.82;100590.56;2087823;28;19926;-46
2022/03/21 00:38:28;;;;;;;;;;;;;;;17.09;57.00;100594.28;2094337;28;19919;-46
2022/03/21 00:39:29;;;;;;;;;;;;;;;17.10;56.91;100585.13;2091260;28;19920;-46
2022/03/21 00:40:29;;;;;;;;;;;;;;;17.10;57.13;100584.28;2091438;28;19946;-47
2022/03/21 00:41:32;;;;;;;;;;;;;;;17.09;57.21;100591.53;2094197;28;19916;-46
2022/03/21 00:42:34;;;;;;;;;;;;;;;17.09;56.93;100583.38;2088847;28;19920;-47
2022/03/21 00:43:34;;;;;;;;;;;;;;;17.08;57.05;100580.81;2088437;28;19919;-46
2022/03/21 00:44:34;;;;;;;;;;;;;;;17.09;57.10;100583.38;2093275;28;20321;-46
2022/03/21 00:45:35;;;;;;;;;;;;;;;17.06;56.92;100589.09;2092727;28;19912;-47
2022/03/21 00:46:36;;;;;;;;;;;;;;;17.06;57.02;100583.63;2091779;28;19990;-46
2022/03/21 00:47:36;;;;;;;;;;;;;;;17.06;57.11;100583.63;2097322;28;19924;-46
2022/03/21 00:48:37;;;;;;;;;;;;;;;17.06;57.08;100591.81;2091956;28;19912;-47
2022/03/21 00:49:37;;;;;;;;;;;;;;;17.07;57.05;100588.06;2091457;28;19920;-46
2022/03/21 00:50:37;;;;;;;;;;;;;;;17.07;57.10;100590.81;2092414;28;19985;-47
2022/03/21 00:51:38;;;;;;;;;;;;;;;17.05;57.12;100587.38;2089609;28;19941;-45
2022/03/21 00:52:39;;;;;;;;;;;;;;;17.06;57.10;100582.78;2093470;28;19916;-44
2022/03/21 00:53:40;;;;;;;;;;;;;;;17.07;56.89;100595.38;2078300;28;19921;-45
2022/03/21 00:54:40;;;;;;;;;;;;;;;17.06;57.06;100582.78;2074013;28;20364;-45
2022/03/21 00:55:40;;;;;;;;;;;;;;;17.07;57.10;100584.50;2081520;28;19921;-45
2022/03/21 00:56:41;;;;;;;;;;;;;;;17.05;57.30;100584.63;2085951;28;20306;-44
2022/03/21 00:57:42;;;;;;;;;;;;;;;17.04;57.05;100579.31;2093118;28;20253;-47
2022/03/21 00:58:43;;;;;;;;;;;;;;;17.06;57.07;100589.09;2089702;28;19946;-46
2022/03/21 00:59:43;;;;;;;;;;;;;;;17.05;57.17;100587.38;2095717;28;20388;-44
2022/03/21 01:00:44;;;;;;;;;;;;;;;17.04;57.18;100584.75;2098590;28;20350;-47
2022/03/21 01:01:44;;;;;;;;;;;;;;;17.05;57.00;100586.47;2089607;28;19919;-45
2022/03/21 01:02:44;;;;;;;;;;;;;;;17.05;57.00;100587.38;2092548;28;19920;-46
2022/03/21 01:03:45;;;;;;;;;;;;;;;17.03;57.08;100578.44;2090662;28;19919;-46
2022/03/21 01:04:45;;;;;;;;;;;;;;;17.05;56.97;100584.63;2092188;28;19930;-45
2022/03/21 01:05:45;;;;;;;;;;;;;;;17.06;57.04;100583.63;2095415;28;19912;-45
2022/03/21 01:06:46;;;;;;;;;;;;;;;17.05;57.03;100592.81;2090864;28;20383;-45
2022/03/21 01:07:46;;;;;;;;;;;;;;;17.06;57.38;100580.91;2092562;28;20023;-45
2022/03/21 01:08:47;;;;;;;;;;;;;;;17.07;57.04;100581.78;2094866;28;19926;-45
2022/03/21 01:09:47;;;;;;;;;;;;;;;17.07;57.09;100584.50;2090544;28;19916;-45
2022/03/21 01:10:47;;;;;;;;;;;;;;;17.07;57.09;100588.06;2086117;28;19917;-45
2022/03/21 01:11:48;;;;;;;;;;;;;;;17.08;56.99;100587.09;2089228;28;20235;-45
2022/03/21 01:12:49;;;;;;;;;;;;;;;17.08;57.27;100587.09;2090117;28;20382;-46
2022/03/21 01:13:50;;;;;;;;;;;;;;;17.09;56.79;100579.78;2095798;28;19945;-46
2022/03/21 01:14:53;;;;;;;;;;;;;;;17.09;56.99;100582.50;2085053;28;20162;-45
2022/03/21 01:15:53;;;;;;;;;;;;;;;17.08;56.86;100576.22;2097583;28;19966;-46
2022/03/21 01:16:55;;;;;;;;;;;;;;;17.09;57.09;100577.06;2090203;28;19924;-45
2022/03/21 01:17:56;;;;;;;;;;;;;;;17.09;56.99;100577.06;2088328;28;20070;-48
2022/03/21 01:18:56;;;;;;;;;;;;;;;17.09;56.78;100577.94;2083922;28;20332;-46
2022/03/21 01:19:57;;;;;;;;;;;;;;;17.10;57.03;100574.22;2076779;28;19998;-45
2022/03/21 01:20:57;;;;;;;;;;;;;;;17.10;57.23;100574.22;2084314;28;20481;-49
2022/03/21 01:21:57;;;;;;;;;;;;;;;17.10;56.98;100571.50;2088149;28;19973;-46
2022/03/21 01:22:58;;;;;;;;;;;;;;;17.09;57.09;100572.47;2092526;28;20354;-46
2022/03/21 01:23:58;;;;;;;;;;;;;;;17.10;56.96;100578.81;2087996;28;19924;-45
2022/03/21 01:24:58;;;;;;;;;;;;;;;17.10;56.85;100571.50;2092689;28;19941;-45
2022/03/21 01:25:59;;;;;;;;;;;;;;;17.10;57.03;100562.47;2091934;28;19916;-45
2022/03/21 01:27:00;;;;;;;;;;;;;;;17.09;56.98;100567.03;2085258;28;19931;-46
2022/03/21 01:28:00;;;;;;;;;;;;;;;17.09;56.99;100572.47;2088650;28;20743;-50
2022/03/21 01:29:00;;;;;;;;;;;;;;;17.08;57.13;100565.31;2087610;28;20411;-48
2022/03/21 01:30:02;;;;;;;;;;;;;;;17.08;57.13;100568.03;2088836;28;19919;-47
2022/03/21 01:31:02;;;;;;;;;;;;;;;17.07;57.01;100563.56;2089343;28;20250;-45
2022/03/21 01:32:03;;;;;;;;;;;;;;;17.07;57.02;100569.00;2090529;28;19920;-46
2022/03/21 01:33:03;;;;;;;;;;;;;;;17.07;56.85;100566.28;2092507;28;19912;-46
2022/03/21 01:34:04;;;;;;;;;;;;;;;17.07;57.15;100566.28;2088589;28;20023;-46
2022/03/21 01:35:05;;;;;;;;;;;;;;;17.08;57.01;100565.31;2086400;28;20005;-45
2022/03/21 01:36:05;;;;;;;;;;;;;;;17.08;57.06;100569.91;2084310;28;20099;-45
2022/03/21 01:37:06;;;;;;;;;;;;;;;17.07;56.98;100568.16;2090456;28;19919;-46
2022/03/21 01:38:06;;;;;;;;;;;;;;;17.07;57.19;100571.75;2091052;28;19928;-46
2022/03/21 01:39:06;;;;;;;;;;;;;;;17.06;57.15;100564.56;2089530;28;19916;-46
2022/03/21 01:40:07;;;;;;;;;;;;;;;17.05;56.92;100565.56;2089186;28;19928;-46
2022/03/21 01:41:08;;;;;;;;;;;;;;;17.07;56.97;100571.75;2094083;28;19927;-45
2022/03/21 01:42:08;;;;;;;;;;;;;;;17.06;56.93;100566.44;2086644;28;20242;-46
2022/03/21 01:43:11;;;;;;;;;;;;;;;17.06;57.00;100566.44;2090854;28;19924;-47
2022/03/21 01:44:12;;;;;;;;;;;;;;;17.05;57.00;100567.41;2083075;28;20325;-46
2022/03/21 01:45:13;;;;;;;;;;;;;;;17.05;57.03;100560.13;2082204;28;19917;-45
2022/03/21 01:46:13;;;;;;;;;;;;;;;17.05;57.20;100565.56;2092887;28;20413;-45
2022/03/21 01:47:14;;;;;;;;;;;;;;;17.05;57.06;100560.13;2089471;28;19920;-46
2022/03/21 01:48:15;;;;;;;;;;;;;;;17.03;56.96;100567.56;2084898;28;19916;-47
2022/03/21 01:49:16;;;;;;;;;;;;;;;17.04;56.80;100566.53;2081714;28;19948;-45
2022/03/21 01:50:17;;;;;;;;;;;;;;;17.04;56.99;100560.25;2091962;28;19927;-45
2022/03/21 01:51:17;;;;;;;;;;;;;;;17.03;57.02;100553.94;2086367;28;19977;-45
2022/03/21 01:52:19;;;;;;;;;;;;;;;17.03;57.10;100553.94;2092111;28;20306;-46
2022/03/21 01:55:58;;;;;;;;;;;;;;;17.03;57.00;100562.09;2094882;28;19924;-45
2022/03/21 01:56:58;;;;;;;;;;;;;;;17.02;57.03;100549.47;2093603;28;19963;-45
2022/03/21 01:57:59;;;;;;;;;;;;;;;17.03;57.16;100556.66;2093532;28;19916;-45
2022/03/21 01:59:00;;;;;;;;;;;;;;;17.02;57.23;100560.34;2089391;28;19935;-46
2022/03/21 02:00:00;;;;;;;;;;;;;;;17.03;57.00;100556.66;2091515;28;20369;-45
2022/03/21 02:01:01;;;;;;;;;;;;;;;17.02;57.19;100557.63;2092500;28;19920;-45
2022/03/21 02:02:01;;;;;;;;;;;;;;;17.01;57.24;100566.81;2086606;28;20253;-45
2022/03/21 02:03:02;;;;;;;;;;;;;;;17.03;57.30;100569.41;2093655;28;19962;-45
2022/03/21 02:04:03;;;;;;;;;;;;;;;17.01;57.26;100566.81;2095027;28;19985;-46
2022/03/21 02:05:04;;;;;;;;;;;;;;;17.02;57.06;100573.97;2092882;28;20034;-45
2022/03/21 02:06:04;;;;;;;;;;;;;;;17.02;57.26;100571.25;2082999;28;19924;-45
2022/03/21 02:07:05;;;;;;;;;;;;;;;17.02;57.54;100565.81;2086903;28;19920;-45
2022/03/21 02:08:05;;;;;;;;;;;;;;;17.02;57.48;100563.06;2092225;28;19942;-45
2022/03/21 02:09:09;;;;;;;;;;;;;;;17.02;57.41;100560.34;2090183;28;19916;-46
2022/03/21 02:10:10;;;;;;;;;;;;;;;17.01;57.31;100555.91;2092051;28;20299;-45
2022/03/21 02:11:10;;;;;;;;;;;;;;;17.01;57.33;100558.63;2090044;28;19985;-46
2022/03/21 02:12:10;;;;;;;;;;;;;;;17.02;57.44;100556.78;2091376;28;20294;-46
2022/03/21 02:13:12;;;;;;;;;;;;;;;17.02;57.36;100554.91;2094786;28;19916;-45
2022/03/21 02:14:12;;;;;;;;;;;;;;;17.03;57.60;100553.94;2088836;28;19927;-45
2022/03/21 02:15:13;;;;;;;;;;;;;;;17.02;57.42;100557.63;2090670;28;20368;-46
2022/03/21 02:16:13;;;;;;;;;;;;;;;17.03;57.40;100551.22;2092747;28;19965;-46
2022/03/21 02:17:18;;;;;;;;;;;;;;;17.02;57.45;100552.19;2092980;28;19920;-46
2022/03/21 02:18:19;;;;;;;;;;;;;;;17.03;57.08;100551.22;2087004;28;20207;-46
2022/03/21 02:19:30;;;;;;;;;;;;;;;17.04;57.23;100549.34;2092765;28;19920;-46
2022/03/21 02:20:31;;;;;;;;;;;;;;;17.04;57.25;100544.75;2089111;28;19920;-46
2022/03/21 02:21:47;;;;;;;;;;;;;;;17.05;57.23;100543.78;2088891;28;19926;-46
2022/03/21 02:23:07;;;;;;;;;;;;;;;17.06;57.12;100545.50;2087668;28;19927;-46
2022/03/21 02:24:10;;;;;;;;;;;;;;;17.06;57.10;100539.19;2086906;28;20128;-45
2022/03/21 02:25:28;;;;;;;;;;;;;;;17.06;57.00;100542.78;2079114;28;20290;-46
2022/03/21 02:26:29;;;;;;;;;;;;;;;17.07;57.17;100530.03;2081848;28;20003;-46
2022/03/21 02:27:30;;;;;;;;;;;;;;;17.06;57.15;100523.72;2090845;28;20433;-47
2022/03/21 02:28:31;;;;;;;;;;;;;;;17.06;57.20;100522.84;2088760;28;20119;-47
2022/03/21 02:29:32;;;;;;;;;;;;;;;17.05;56.90;100527.44;2090172;28;19924;-45
2022/03/21 02:30:33;;;;;;;;;;;;;;;17.05;57.13;100532.88;2087232;28;19997;-46
2022/03/21 02:31:34;;;;;;;;;;;;;;;17.07;57.21;100535.47;2085586;28;20856;-46
2022/03/21 02:32:35;;;;;;;;;;;;;;;17.07;57.25;100530.03;2090104;28;19920;-46
2022/03/21 02:33:35;;;;;;;;;;;;;;;17.05;57.21;100527.44;2091840;28;20253;-44
2022/03/21 02:34:37;;;;;;;;;;;;;;;17.05;56.99;100532.88;2088978;28;20251;-45
2022/03/21 02:35:38;;;;;;;;;;;;;;;17.06;57.11;100533.75;2088493;28;19913;-46
2022/03/21 02:36:39;;;;;;;;;;;;;;;17.05;57.14;100524.72;2086343;28;19912;-45
2022/03/21 02:37:39;;;;;;;;;;;;;;;17.05;57.16;100532.88;2087652;28;20265;-45
2022/03/21 02:38:40;;;;;;;;;;;;;;;17.04;57.30;100528.41;2087103;28;19921;-46
2022/03/21 02:39:40;;;;;;;;;;;;;;;17.03;57.04;100521.25;2087190;28;19920;-45
2022/03/21 02:40:41;;;;;;;;;;;;;;;17.05;56.97;100522.00;2091083;28;19920;-45
2022/03/21 02:41:41;;;;;;;;;;;;;;;17.04;57.03;100520.25;2087243;28;20174;-45
2022/03/21 02:42:42;;;;;;;;;;;;;;;17.03;56.99;100514.94;2091219;28;21183;-46
2022/03/21 02:43:55;;;;;;;;;;;;;;;17.02;56.98;100511.31;2089621;28;19920;-45
2022/03/21 02:44:56;;;;;;;;;;;;;;;17.03;57.19;100512.22;2088758;28;19946;-48
2022/03/21 02:46:03;;;;;;;;;;;;;;;17.03;57.13;100512.22;2090758;28;19998;-45
2022/03/21 02:47:04;;;;;;;;;;;;;;;17.01;57.02;100509.59;2085837;28;20647;-45
2022/03/21 02:48:04;;;;;;;;;;;;;;;17.02;57.17;100505.03;2090550;28;20351;-46
2022/03/21 02:49:06;;;;;;;;;;;;;;;17.02;57.25;100508.59;2089244;28;19916;-46
2022/03/21 02:50:07;;;;;;;;;;;;;;;17.01;57.15;100509.59;2090399;28;20338;-46
2022/03/21 02:51:08;;;;;;;;;;;;;;;17.01;57.08;100498.72;2086776;28;19991;-46
2022/03/21 02:52:09;;;;;;;;;;;;;;;17.02;57.01;100511.31;2088845;28;20309;-47
2022/03/21 02:53:10;;;;;;;;;;;;;;;17.02;57.28;100499.56;2089231;28;19924;-47
2022/03/21 02:54:13;;;;;;;;;;;;;;;17.01;57.17;100501.44;2087647;28;19964;-47
2022/03/21 02:55:13;;;;;;;;;;;;;;;17.01;57.41;100498.72;2086504;28;20020;-46
2022/03/21 02:56:14;;;;;;;;;;;;;;;17.00;57.31;100502.44;2087187;28;19958;-46
2022/03/21 02:57:14;;;;;;;;;;;;;;;17.01;57.09;100497.84;2089968;28;19916;-46
2022/03/21 02:58:14;;;;;;;;;;;;;;;17.00;57.09;100507.91;2088373;28;19904;-46
2022/03/21 02:59:18;;;;;;;;;;;;;;;17.00;57.37;100504.28;2087540;28;20404;-45
2022/03/21 03:00:18;;;;;;;;;;;;;;;17.00;57.29;100505.16;2090303;28;19964;-47
2022/03/21 03:01:18;;;;;;;;;;;;;;;16.99;57.23;100506.16;2083552;28;19916;-45
2022/03/21 03:02:19;;;;;;;;;;;;;;;16.99;57.41;100506.16;2082045;28;19920;-47
2022/03/21 03:03:19;;;;;;;;;;;;;;;16.99;57.25;100503.41;2088334;28;20006;-46
2022/03/21 03:04:26;;;;;;;;;;;;;;;17.00;57.18;100501.56;2094209;28;20269;-46
2022/03/21 03:05:26;;;;;;;;;;;;;;;17.00;57.25;100501.56;2093402;28;19916;-49
2022/03/21 03:06:27;;;;;;;;;;;;;;;17.00;57.24;100502.44;2089511;28;19971;-46
2022/03/21 03:07:27;;;;;;;;;;;;;;;17.00;57.22;100499.72;2087303;28;19920;-45
2022/03/21 03:08:28;;;;;;;;;;;;;;;17.00;57.12;100497.00;2091890;28;19916;-45
2022/03/21 03:09:29;;;;;;;;;;;;;;;17.00;57.26;100502.44;2097350;28;20034;-47
2022/03/21 03:10:30;;;;;;;;;;;;;;;17.00;57.38;100502.44;2091165;28;19936;-46
2022/03/21 03:11:30;;;;;;;;;;;;;;;16.99;57.31;100500.69;2089256;28;20340;-46
2022/03/21 03:12:30;;;;;;;;;;;;;;;17.00;57.20;100497.00;2089923;28;19925;-46
2022/03/21 03:13:31;;;;;;;;;;;;;;;17.01;57.07;100504.16;2085499;28;19920;-47
2022/03/21 03:14:31;;;;;;;;;;;;;;;17.01;57.15;100504.16;2091399;28;19958;-45
2022/03/21 03:15:31;;;;;;;;;;;;;;;17.01;57.24;100509.59;2089826;28;20220;-47
2022/03/21 03:16:32;;;;;;;;;;;;;;;17.01;57.20;100506.88;2087985;28;19920;-46
2022/03/21 03:17:33;;;;;;;;;;;;;;;17.02;57.17;100511.31;2089670;28;19921;-46
2022/03/21 03:18:33;;;;;;;;;;;;;;;17.03;57.24;100506.78;2080931;28;20046;-46
2022/03/21 03:19:33;;;;;;;;;;;;;;;17.03;57.28;100502.19;2080260;28;19926;-45
2022/03/21 03:20:34;;;;;;;;;;;;;;;17.03;57.19;100509.50;2077266;28;20166;-46
2022/03/21 03:21:36;;;;;;;;;;;;;;;17.03;57.27;100504.91;2076507;28;19947;-46
2022/03/21 03:22:37;;;;;;;;;;;;;;;17.03;57.13;100507.63;2091925;28;19924;-47
2022/03/21 03:23:38;;;;;;;;;;;;;;;17.02;57.03;100503.16;2091870;28;20014;-46
2022/03/21 03:24:38;;;;;;;;;;;;;;;17.04;57.01;100506.63;2087705;28;21745;-50
2022/03/21 03:25:39;;;;;;;;;;;;;;;17.04;56.95;100512.06;2094317;28;19966;-46
2022/03/21 03:26:39;;;;;;;;;;;;;;;17.04;57.17;100508.50;2087586;28;19965;-46
2022/03/21 03:27:40;;;;;;;;;;;;;;;17.04;57.14;100513.94;2090645;28;19970;-46
2022/03/21 03:28:40;;;;;;;;;;;;;;;17.03;57.25;100513.06;2087457;28;19916;-46
2022/03/21 03:29:40;;;;;;;;;;;;;;;17.02;57.11;100508.59;2091236;28;19991;-47
2022/03/21 03:30:41;;;;;;;;;;;;;;;17.04;57.04;100509.34;2085918;28;19923;-46
2022/03/21 03:31:42;;;;;;;;;;;;;;;17.04;57.10;100513.94;2089769;28;20311;-46
2022/03/21 03:32:44;;;;;;;;;;;;;;;17.03;57.23;100515.81;2095209;28;19916;-46
2022/03/21 03:33:45;;;;;;;;;;;;;;;17.03;56.95;100518.53;2091400;28;19919;-49
2022/03/21 03:34:45;;;;;;;;;;;;;;;17.03;56.91;100512.22;2090668;28;20106;-49
2022/03/21 03:35:46;;;;;;;;;;;;;;;17.03;57.23;100518.53;2094731;28;20351;-48
2022/03/21 03:36:48;;;;;;;;;;;;;;;17.02;56.97;100516.78;2088671;28;19912;-46
2022/03/21 03:37:48;;;;;;;;;;;;;;;17.02;56.85;100516.78;2091787;28;20003;-49
2022/03/21 03:38:48;;;;;;;;;;;;;;;17.01;56.79;100509.59;2086170;28;20119;-46
2022/03/21 03:39:49;;;;;;;;;;;;;;;17.02;57.01;100516.78;2085973;28;20119;-46
2022/03/21 03:40:49;;;;;;;;;;;;;;;17.03;56.91;100510.34;2091957;28;20212;-45
2022/03/21 03:41:49;;;;;;;;;;;;;;;17.02;56.89;100514.06;2093902;28;19926;-45
2022/03/21 03:42:50;;;;;;;;;;;;;;;17.01;57.01;100514.19;2089921;28;19919;-45
2022/03/21 03:43:50;;;;;;;;;;;;;;;17.01;56.87;100508.75;2089437;28;19925;-45
2022/03/21 03:44:50;;;;;;;;;;;;;;;17.01;56.91;100514.19;2084836;28;20372;-47
2022/03/21 03:45:52;;;;;;;;;;;;;;;17.01;57.10;100511.47;2092038;28;19927;-46
2022/03/21 03:46:53;;;;;;;;;;;;;;;17.01;57.00;100515.06;2082536;28;19936;-46
2022/03/21 03:47:53;;;;;;;;;;;;;;;17.01;57.18;100503.31;2076647;28;19928;-49
2022/03/21 03:48:54;;;;;;;;;;;;;;;17.01;56.99;100508.75;2090512;28;19959;-45
2022/03/21 03:49:55;;;;;;;;;;;;;;;17.01;57.08;100517.78;2091124;28;20342;-46
2022/03/21 03:50:55;;;;;;;;;;;;;;;16.99;56.93;100508.88;2094652;28;19930;-48
2022/03/21 03:51:55;;;;;;;;;;;;;;;16.99;56.86;100519.75;2086300;28;20246;-45
2022/03/21 03:52:56;;;;;;;;;;;;;;;17.00;56.99;100513.34;2088931;28;19924;-47
2022/03/21 03:53:56;;;;;;;;;;;;;;;16.98;57.15;100515.31;2090786;28;20331;-46
2022/03/21 03:54:57;;;;;;;;;;;;;;;17.00;56.85;100523.34;2093726;28;20392;-45
2022/03/21 03:55:57;;;;;;;;;;;;;;;16.99;57.05;100514.31;2089608;28;20533;-45
2022/03/21 03:56:57;;;;;;;;;;;;;;;16.99;56.85;100522.47;2092029;28;19931;-48
2022/03/21 03:57:57;;;;;;;;;;;;;;;16.99;56.94;100525.22;2091302;28;19923;-48
2022/03/21 03:58:58;;;;;;;;;;;;;;;17.00;56.62;100523.34;2090773;28;20329;-47
2022/03/21 03:59:58;;;;;;;;;;;;;;;16.97;56.83;100508.13;2089569;28;19928;-45
2022/03/21 04:00:59;;;;;;;;;;;;;;;16.97;56.98;100521.75;2093375;28;19918;-46
2022/03/21 04:01:59;;;;;;;;;;;;;;;16.98;56.90;100525.31;2088914;28;20030;-46
2022/03/21 04:04:19;;;;;;;;;;;;;;;16.97;57.07;100518.16;2091637;28;19924;-47
2022/03/21 04:05:21;;;;;;;;;;;;;;;16.95;56.97;100514.69;2096349;28;19927;-46
2022/03/21 04:06:22;;;;;;;;;;;;;;;16.96;56.97;100500.97;2093546;28;19950;-47
2022/03/21 04:07:24;;;;;;;;;;;;;;;16.97;57.04;100499.09;2085556;28;20358;-46
2022/03/21 04:08:25;;;;;;;;;;;;;;;16.96;57.14;100506.41;2089314;28;19920;-47
2022/03/21 04:09:25;;;;;;;;;;;;;;;16.96;56.95;100506.41;2094497;28;19965;-46
2022/03/21 04:10:26;;;;;;;;;;;;;;;16.96;56.97;100498.22;2094057;28;20512;-45
2022/03/21 04:11:26;;;;;;;;;;;;;;;16.96;56.90;100508.28;2087229;28;19965;-45
2022/03/21 04:12:27;;;;;;;;;;;;;;;16.97;57.11;100510.84;2090220;28;19923;-47
2022/03/21 04:13:27;;;;;;;;;;;;;;;16.96;56.97;100514.56;2083635;28;19912;-47
2022/03/21 04:14:28;;;;;;;;;;;;;;;16.96;57.31;100517.28;2090820;28;19912;-44
2022/03/21 04:15:29;;;;;;;;;;;;;;;16.96;57.03;100513.72;2100029;28;19924;-44
2022/03/21 04:16:29;;;;;;;;;;;;;;;16.95;57.08;100510.09;2086783;28;19924;-44
2022/03/21 04:17:30;;;;;;;;;;;;;;;16.96;56.88;100514.56;2096825;28;20063;-46
2022/03/21 04:18:30;;;;;;;;;;;;;;;16.96;57.01;100506.41;2091421;28;19920;-45
2022/03/21 04:19:30;;;;;;;;;;;;;;;16.97;57.19;100516.28;2081280;28;19920;-45
2022/03/21 04:20:31;;;;;;;;;;;;;;;16.98;56.94;100526.22;2089920;28;19989;-44
2022/03/21 04:21:32;;;;;;;;;;;;;;;16.99;57.03;100522.47;2091657;28;19968;-45
2022/03/21 04:22:35;;;;;;;;;;;;;;;16.99;56.87;100522.47;2090019;28;19920;-44
2022/03/21 04:23:36;;;;;;;;;;;;;;;17.00;56.88;100524.22;2089773;28;19926;-46
2022/03/21 04:24:36;;;;;;;;;;;;;;;17.00;56.91;100523.34;2085147;28;20319;-46
2022/03/21 04:25:36;;;;;;;;;;;;;;;16.99;57.00;100527.94;2091040;28;19983;-47
2022/03/21 04:26:37;;;;;;;;;;;;;;;17.00;56.72;100524.22;2087397;28;20007;-45
2022/03/21 04:27:37;;;;;;;;;;;;;;;17.00;57.00;100529.69;2088849;28;19958;-45
2022/03/21 04:28:38;;;;;;;;;;;;;;;17.00;56.93;100526.97;2087027;28;19919;-46
2022/03/21 04:29:39;;;;;;;;;;;;;;;17.00;56.94;100520.63;2079896;28;19924;-46
2022/03/21 04:30:39;;;;;;;;;;;;;;;17.00;56.95;100518.78;2091706;28;20258;-48
2022/03/21 04:31:39;;;;;;;;;;;;;;;17.00;56.85;100526.97;2089224;28;19928;-47
2022/03/21 04:32:39;;;;;;;;;;;;;;;17.00;56.72;100524.22;2089790;28;19927;-45
2022/03/21 04:33:40;;;;;;;;;;;;;;;17.00;56.86;100524.22;2094795;28;20018;-45
2022/03/21 04:34:40;;;;;;;;;;;;;;;17.00;56.88;100532.41;2089972;28;19985;-47
2022/03/21 04:35:42;;;;;;;;;;;;;;;16.99;56.84;100522.47;2091235;28;19934;-48
2022/03/21 04:36:42;;;;;;;;;;;;;;;17.00;56.76;100532.41;2085546;28;19916;-47
2022/03/21 04:37:43;;;;;;;;;;;;;;;17.00;56.83;100521.50;2094033;28;19919;-46
2022/03/21 04:38:44;;;;;;;;;;;;;;;16.99;56.78;100533.38;2091400;28;19919;-45
2022/03/21 04:39:44;;;;;;;;;;;;;;;16.98;56.89;100520.75;2092605;28;20342;-48
2022/03/21 04:40:46;;;;;;;;;;;;;;;16.99;56.80;100532.53;2088868;28;19927;-45
2022/03/21 04:41:46;;;;;;;;;;;;;;;16.97;56.68;100524.47;2089559;28;19924;-47
2022/03/21 04:42:47;;;;;;;;;;;;;;;16.99;56.97;100530.66;2087090;28;19970;-45
2022/03/21 04:43:47;;;;;;;;;;;;;;;16.97;56.67;100529.91;2091488;28;20172;-46
2022/03/21 04:44:50;;;;;;;;;;;;;;;16.97;56.64;100523.59;2081786;28;20555;-46
2022/03/21 04:45:50;;;;;;;;;;;;;;;16.98;56.63;100525.31;2085639;28;20396;-46
2022/03/21 04:46:50;;;;;;;;;;;;;;;16.97;56.72;100529.06;2088954;28;19965;-48
2022/03/21 04:47:51;;;;;;;;;;;;;;;16.96;56.68;100528.19;2087005;28;19983;-46
2022/03/21 04:48:51;;;;;;;;;;;;;;;16.97;56.51;100532.63;2090884;28;19938;-45
2022/03/21 04:49:51;;;;;;;;;;;;;;;16.97;56.61;100529.91;2096795;28;20222;-46
2022/03/21 04:50:52;;;;;;;;;;;;;;;16.96;56.88;100527.31;2093640;28;20201;-46
2022/03/21 04:51:52;;;;;;;;;;;;;;;16.96;56.60;100528.19;2092473;28;19920;-45
2022/03/21 04:52:52;;;;;;;;;;;;;;;16.95;56.78;100521.00;2089739;28;20031;-45
2022/03/21 04:53:53;;;;;;;;;;;;;;;16.95;56.80;100526.44;2089870;28;20618;-46
2022/03/21 04:54:53;;;;;;;;;;;;;;;16.96;56.63;100520.03;2091983;28;19948;-48
2022/03/21 04:55:53;;;;;;;;;;;;;;;16.96;56.86;100528.19;2091341;28;20326;-46
2022/03/21 04:56:54;;;;;;;;;;;;;;;16.95;56.71;100531.88;2092999;28;19916;-45
2022/03/21 04:57:55;;;;;;;;;;;;;;;16.96;56.82;100521.88;2091642;28;19942;-46
2022/03/21 04:58:55;;;;;;;;;;;;;;;16.96;56.83;100530.06;2088930;28;19917;-46
2022/03/21 04:59:55;;;;;;;;;;;;;;;16.96;56.81;100525.47;2094997;28;19977;-46
2022/03/21 05:00:55;;;;;;;;;;;;;;;16.95;56.67;100531.88;2093169;28;19923;-46
2022/03/21 05:01:56;;;;;;;;;;;;;;;16.95;56.78;100526.44;2090611;28;19925;-47
2022/03/21 05:02:56;;;;;;;;;;;;;;;16.95;56.75;100526.44;2097650;28;20318;-48
2022/03/21 05:03:57;;;;;;;;;;;;;;;16.95;56.57;100523.72;2088882;28;19932;-50
2022/03/21 05:04:57;;;;;;;;;;;;;;;16.96;56.78;100527.31;2094984;28;19961;-47
2022/03/21 05:05:58;;;;;;;;;;;;;;;16.95;56.77;100523.72;2086281;28;19920;-47
2022/03/21 05:06:59;;;;;;;;;;;;;;;16.95;56.81;100515.53;2089162;28;19924;-48
2022/03/21 05:07:59;;;;;;;;;;;;;;;16.96;56.83;100514.56;2086138;28;19942;-46
2022/03/21 05:09:03;;;;;;;;;;;;;;;16.96;56.80;100521.88;2085385;28;20180;-47
2022/03/21 05:10:03;;;;;;;;;;;;;;;16.94;56.78;100519.28;2087497;28;19920;-46
2022/03/21 05:11:04;;;;;;;;;;;;;;;16.95;56.79;100523.72;2086593;28;20789;-46
2022/03/21 05:12:04;;;;;;;;;;;;;;;16.94;56.99;100522.00;2087361;28;19928;-45
2022/03/21 05:13:06;;;;;;;;;;;;;;;16.95;56.72;100520.13;2089859;28;19920;-46
2022/03/21 05:14:07;;;;;;;;;;;;;;;16.93;56.68;100518.41;2092111;28;19921;-47
2022/03/21 05:15:08;;;;;;;;;;;;;;;16.94;56.83;100519.28;2090818;28;19951;-48
2022/03/21 05:16:08;;;;;;;;;;;;;;;16.95;56.83;100526.44;2092805;28;20394;-46
2022/03/21 05:17:11;;;;;;;;;;;;;;;16.95;56.96;100521.00;2090902;28;19997;-47